Time;durP1;ratioP1;P1;durP2;ratioP2;P2;SDS_P1;SDS_P2;PMS_P1;PMS_P2;Temp;Humidity;BMP_temperature;BMP_pressure;BME280_temperature;BME280_humidity;BME280_pressure;Samples;Min_cycle;Max_cycle;Signal;HPM_P1;HPM_P2
2021/06/15 00:01:32;;;;;;;1.23;1.13;;;24.80;99.90;;;;;;5082778;28;20103;-61
2021/06/15 00:03:58;;;;;;;0.90;0.90;;;24.90;99.90;;;;;;5069249;28;20127;-58
2021/06/15 00:06:24;;;;;;;1.20;1.10;;;25.00;99.90;;;;;;5073657;28;20426;-57
2021/06/15 00:08:49;;;;;;;1.00;0.90;;;24.90;99.90;;;;;;5070150;28;20035;-59
2021/06/15 00:11:15;;;;;;;1.60;0.90;;;24.80;99.90;;;;;;5084566;28;20035;-57
2021/06/15 00:13:41;;;;;;;0.90;0.90;;;24.90;99.90;;;;;;5077747;28;20039;-57
2021/06/15 00:16:07;;;;;;;1.00;0.90;;;24.80;99.90;;;;;;5073219;28;20029;-57
2021/06/15 00:18:33;;;;;;;1.10;0.98;;;24.80;99.90;;;;;;5076311;28;20024;-57
2021/06/15 00:20:59;;;;;;;0.90;0.90;;;24.60;99.90;;;;;;5082805;28;20453;-57
2021/06/15 00:23:24;;;;;;;1.35;1.10;;;24.60;99.90;;;;;;5065212;28;20064;-57
2021/06/15 00:25:50;;;;;;;1.60;1.20;;;24.60;99.90;;;;;;5064018;28;20331;-57
2021/06/15 00:28:16;;;;;;;0.93;0.93;;;24.50;99.90;;;;;;5064476;28;20499;-57
2021/06/15 00:30:42;;;;;;;1.08;0.98;;;24.50;99.90;;;;;;5063926;28;20059;-57
2021/06/15 00:33:07;;;;;;;1.95;1.02;;;24.50;99.90;;;;;;5064578;28;20025;-57
2021/06/15 00:35:33;;;;;;;1.10;1.00;;;24.50;99.90;;;;;;5082905;28;20028;-57
2021/06/15 00:38:00;;;;;;;0.80;0.80;;;24.50;99.90;;;;;;5083242;28;20099;-57
2021/06/15 00:40:26;;;;;;;1.00;0.90;;;24.30;99.90;;;;;;5084315;28;20028;-57
2021/06/15 00:42:53;;;;;;;1.10;1.00;;;24.30;99.90;;;;;;5084067;28;20023;-57
2021/06/15 00:45:26;;;;;;;1.05;0.95;;;24.30;99.90;;;;;;5084213;28;20418;-57
2021/06/15 00:47:53;;;;;;;0.82;0.82;;;24.50;99.90;;;;;;5083894;28;20123;-57
2021/06/15 00:50:21;;;;;;;0.85;0.80;;;24.50;99.90;;;;;;5084168;28;20480;-57
2021/06/15 00:52:46;;;;;;;0.75;0.75;;;24.60;99.90;;;;;;5083421;28;20023;-56
2021/06/15 00:55:13;;;;;;;0.60;0.60;;;24.50;99.90;;;;;;5084332;28;20035;-57
2021/06/15 00:57:39;;;;;;;1.75;0.80;;;24.40;99.90;;;;;;5084680;28;20035;-57
2021/06/15 01:00:06;;;;;;;0.77;0.77;;;24.30;99.90;;;;;;5088018;28;20523;-57
2021/06/15 01:02:33;;;;;;;0.90;0.90;;;24.30;99.90;;;;;;5087789;28;20059;-57
2021/06/15 01:05:01;;;;;;;1.08;0.90;;;24.30;99.90;;;;;;5087169;28;20084;-57
2021/06/15 01:07:32;;;;;;;1.10;0.82;;;24.40;99.90;;;;;;5087822;28;20410;-56
2021/06/15 01:10:16;;;;;;;1.20;0.70;;;24.40;99.90;;;;;;5085991;28;20069;-57
2021/06/15 01:13:00;;;;;;;2.20;0.90;;;24.30;99.90;;;;;;5067166;28;20036;-57
2021/06/15 01:15:36;;;;;;;1.00;0.80;;;24.30;99.90;;;;;;5067444;28;20036;-57
2021/06/15 01:18:09;;;;;;;0.85;0.80;;;24.30;99.90;;;;;;5066362;28;20028;-57
2021/06/15 01:20:38;;;;;;;1.00;0.90;;;24.30;99.90;;;;;;5067903;28;20310;-56
2021/06/15 01:23:24;;;;;;;1.15;1.05;;;24.30;99.90;;;;;;5067665;28;20111;-57
2021/06/15 01:26:18;;;;;;;0.75;0.75;;;24.30;99.90;;;;;;5066732;28;20029;-57
2021/06/15 01:28:51;;;;;;;0.80;0.80;;;24.30;99.90;;;;;;5065076;28;20419;-57
2021/06/15 01:31:23;;;;;;;0.93;0.80;;;24.20;99.90;;;;;;5067287;28;20111;-57
2021/06/15 01:33:53;;;;;;;1.42;0.95;;;24.20;99.90;;;;;;5066521;28;20127;-57
2021/06/15 01:36:23;;;;;;;0.98;0.90;;;24.20;99.90;;;;;;5067053;28;20274;-57
2021/06/15 01:38:56;;;;;;;0.80;0.80;;;24.10;99.90;;;;;;5066547;28;20150;-57
2021/06/15 01:41:31;;;;;;;0.70;0.70;;;24.10;99.90;;;;;;5067077;28;20031;-57
2021/06/15 01:44:01;;;;;;;0.95;0.73;;;24.10;99.90;;;;;;5066550;28;20036;-57
2021/06/15 01:46:33;;;;;;;0.98;0.88;;;24.10;99.90;;;;;;5066983;28;20513;-57
2021/06/15 01:49:05;;;;;;;0.90;0.77;;;24.00;99.90;;;;;;5066460;28;20478;-57
2021/06/15 01:51:32;;;;;;;0.85;0.85;;;23.90;99.90;;;;;;5066379;28;20442;-57
2021/06/15 01:54:10;;;;;;;1.50;1.00;;;23.70;99.90;;;;;;5066535;28;20035;-57
2021/06/15 01:56:42;;;;;;;0.98;0.93;;;23.70;99.90;;;;;;5066997;28;20089;-57
2021/06/15 01:59:13;;;;;;;0.95;0.95;;;23.70;99.90;;;;;;5066005;28;20052;-57
2021/06/15 02:01:42;;;;;;;1.10;0.95;;;23.60;99.90;;;;;;5067144;28;20555;-57
2021/06/15 02:04:10;;;;;;;0.80;0.80;;;23.60;99.90;;;;;;5066462;28;20018;-57
2021/06/15 02:06:36;;;;;;;0.80;0.80;;;23.60;99.90;;;;;;5065812;28;20046;-57
2021/06/15 02:09:05;;;;;;;0.90;0.90;;;23.60;99.90;;;;;;5066579;28;20029;-57
2021/06/15 02:11:32;;;;;;;0.70;0.70;;;23.60;99.90;;;;;;5080451;28;20081;-57
2021/06/15 02:14:04;;;;;;;1.13;0.90;;;23.60;99.90;;;;;;5086025;28;20047;-57
2021/06/15 02:16:30;;;;;;;1.27;1.10;;;23.60;99.90;;;;;;5085217;28;20028;-57
2021/06/15 02:18:57;;;;;;;1.55;0.82;;;23.50;99.90;;;;;;5086035;28;20411;-57
2021/06/15 02:21:26;;;;;;;0.70;0.70;;;23.50;99.90;;;;;;5086437;28;20020;-57
2021/06/15 02:23:58;;;;;;;0.88;0.88;;;23.40;99.90;;;;;;5086055;28;20024;-57
2021/06/15 02:26:26;;;;;;;0.70;0.70;;;23.40;99.90;;;;;;5086247;28;20020;-57
2021/06/15 02:28:52;;;;;;;1.70;1.10;;;23.30;99.90;;;;;;5086074;28;20031;-57
2021/06/15 02:31:22;;;;;;;1.10;1.00;;;23.20;99.90;;;;;;5086283;28;20409;-57
2021/06/15 02:33:53;;;;;;;1.10;1.00;;;23.20;99.90;;;;;;5086167;28;20103;-57
2021/06/15 02:36:26;;;;;;;0.82;0.82;;;23.30;99.90;;;;;;5085426;28;20028;-57
2021/06/15 02:38:59;;;;;;;1.00;0.90;;;23.30;99.90;;;;;;5085653;28;20031;-57
2021/06/15 02:41:25;;;;;;;0.95;0.90;;;23.30;99.90;;;;;;5085994;28;20035;-57
2021/06/15 02:43:58;;;;;;;0.75;0.75;;;23.30;99.90;;;;;;5085628;28;20028;-57
2021/06/15 02:46:26;;;;;;;0.77;0.77;;;23.30;99.90;;;;;;5085808;28;20604;-57
2021/06/15 02:48:55;;;;;;;1.55;0.70;;;23.20;99.90;;;;;;5085136;28;20418;-57
2021/06/15 02:51:24;;;;;;;0.70;0.70;;;23.20;99.90;;;;;;5085533;28;20106;-57
2021/06/15 02:54:30;;;;;;;1.05;0.82;;;23.20;99.90;;;;;;5085886;28;20035;-57
2021/06/15 02:56:57;;;;;;;0.68;0.68;;;23.10;99.90;;;;;;5087224;28;20027;-57
2021/06/15 02:59:23;;;;;;;0.80;0.80;;;23.10;99.90;;;;;;5105559;28;20103;-57
2021/06/15 03:01:50;;;;;;;1.02;0.73;;;23.10;99.90;;;;;;5105614;28;20505;-57
2021/06/15 03:04:17;;;;;;;0.93;0.85;;;23.10;99.90;;;;;;5105431;28;20020;-57
2021/06/15 03:06:43;;;;;;;1.08;0.80;;;23.10;99.90;;;;;;5105747;28;20519;-57
2021/06/15 03:09:10;;;;;;;1.17;0.90;;;23.10;99.90;;;;;;5105682;28;20100;-57
2021/06/15 03:11:41;;;;;;;0.90;0.75;;;23.00;99.90;;;;;;5090956;28;20074;-57
2021/06/15 03:14:20;;;;;;;0.85;0.85;;;22.90;99.90;;;;;;5085284;28;20116;-57
2021/06/15 03:16:47;;;;;;;1.20;0.90;;;23.00;99.90;;;;;;5084144;28;20028;-57
2021/06/15 03:19:21;;;;;;;0.70;0.70;;;22.90;99.90;;;;;;5084845;28;20023;-57
2021/06/15 03:21:53;;;;;;;1.70;1.15;;;22.80;99.90;;;;;;5084686;28;20028;-57
2021/06/15 03:24:26;;;;;;;1.00;0.90;;;22.80;99.90;;;;;;5084927;28;20035;-57
2021/06/15 03:27:00;;;;;;;0.73;0.73;;;22.70;99.90;;;;;;5085093;28;20052;-57
2021/06/15 03:29:30;;;;;;;0.90;0.70;;;22.70;99.90;;;;;;5085121;28;20028;-57
2021/06/15 03:32:02;;;;;;;0.80;0.80;;;22.70;99.90;;;;;;5085210;28;20032;-57
2021/06/15 03:34:33;;;;;;;0.90;0.75;;;22.60;99.90;;;;;;5084763;28;20404;-57
2021/06/15 03:36:59;;;;;;;1.08;1.00;;;22.60;99.90;;;;;;5084924;28;20063;-57
2021/06/15 03:39:29;;;;;;;0.82;0.70;;;22.70;99.90;;;;;;5084860;28;20032;-57
2021/06/15 03:41:59;;;;;;;0.80;0.60;;;22.70;99.90;;;;;;5084871;28;20028;-57
2021/06/15 03:44:25;;;;;;;0.60;0.55;;;22.60;99.90;;;;;;5084755;28;20016;-57
2021/06/15 03:46:53;;;;;;;0.77;0.70;;;22.60;99.90;;;;;;5084781;28;20024;-57
2021/06/15 03:49:24;;;;;;;0.70;0.70;;;22.40;99.90;;;;;;5084557;28;20038;-57
2021/06/15 03:51:54;;;;;;;0.95;0.90;;;22.40;99.90;;;;;;5084297;28;20164;-57
2021/06/15 03:54:21;;;;;;;0.98;0.80;;;22.40;99.90;;;;;;5084757;28;20093;-57
2021/06/15 03:56:50;;;;;;;0.73;0.73;;;22.40;99.90;;;;;;5084477;28;20455;-57
2021/06/15 03:59:19;;;;;;;0.90;0.90;;;22.30;99.90;;;;;;5084664;28;20505;-57
2021/06/15 04:01:46;;;;;;;1.25;0.80;;;22.30;99.90;;;;;;5084425;28;20023;-57
2021/06/15 04:04:16;;;;;;;0.90;0.90;;;22.50;99.90;;;;;;5083312;28;20020;-57
2021/06/15 04:06:49;;;;;;;1.10;1.00;;;22.50;99.90;;;;;;5084210;28;20058;-57
2021/06/15 04:09:15;;;;;;;1.10;0.90;;;22.40;99.90;;;;;;5081867;28;20114;-57
2021/06/15 04:11:42;;;;;;;0.85;0.85;;;22.20;99.90;;;;;;5075426;28;20039;-57
2021/06/15 04:14:11;;;;;;;0.73;0.70;;;22.20;99.90;;;;;;5065902;28;20020;-57
2021/06/15 04:16:38;;;;;;;1.10;1.00;;;21.90;99.90;;;;;;5079470;28;20799;-57
2021/06/15 04:19:08;;;;;;;0.90;0.90;;;21.80;99.90;;;;;;5086546;28;20577;-57
2021/06/15 04:21:39;;;;;;;1.00;0.90;;;21.70;99.90;;;;;;5077519;28;20479;-57
2021/06/15 04:24:11;;;;;;;0.77;0.77;;;21.70;99.90;;;;;;5066375;28;20078;-57
2021/06/15 04:26:36;;;;;;;1.48;1.20;;;21.90;99.90;;;;;;5066003;28;20074;-57
2021/06/15 04:29:05;;;;;;;1.25;0.80;;;21.90;99.90;;;;;;5065608;28;20037;-57
2021/06/15 04:31:34;;;;;;;1.10;0.88;;;22.00;99.90;;;;;;5066356;28;20056;-57
2021/06/15 04:34:02;;;;;;;1.13;1.00;;;22.00;99.90;;;;;;5067380;28;20028;-57
2021/06/15 04:36:31;;;;;;;1.30;0.90;;;22.00;99.90;;;;;;5069764;28;20025;-57
2021/06/15 04:39:18;;;;;;;0.95;0.90;;;21.90;99.90;;;;;;5069377;28;20032;-57
2021/06/15 04:41:56;;;;;;;0.98;0.82;;;21.90;99.90;;;;;;5069421;28;20012;-57
2021/06/15 04:44:26;;;;;;;1.90;1.00;;;22.00;99.90;;;;;;5087316;28;20028;-57
2021/06/15 04:47:00;;;;;;;0.90;0.90;;;21.90;99.90;;;;;;5080967;28;20433;-57
2021/06/15 04:49:53;;;;;;;0.98;0.93;;;21.90;99.90;;;;;;5069435;28;20109;-57
2021/06/15 04:52:23;;;;;;;0.98;0.85;;;21.80;99.90;;;;;;5068962;28;20108;-57
2021/06/15 04:54:50;;;;;;;2.22;1.38;;;21.70;99.90;;;;;;5069112;28;20039;-57
2021/06/15 04:57:23;;;;;;;0.93;0.93;;;21.80;99.90;;;;;;5069426;28;20031;-56
2021/06/15 04:59:53;;;;;;;2.03;1.00;;;21.70;99.90;;;;;;5078560;28;20032;-57
2021/06/15 05:02:21;;;;;;;2.97;1.40;;;21.70;99.90;;;;;;5089257;28;20492;-56
2021/06/15 05:04:49;;;;;;;1.08;0.90;;;21.80;99.90;;;;;;5077530;28;20074;-57
2021/06/15 05:07:19;;;;;;;1.10;1.00;;;21.90;99.90;;;;;;5087515;28;20023;-57
2021/06/15 05:09:49;;;;;;;0.85;0.85;;;22.00;99.90;;;;;;5087762;28;20032;-57
2021/06/15 05:12:17;;;;;;;0.65;0.65;;;22.10;99.90;;;;;;5087633;28;20124;-57
2021/06/15 05:14:45;;;;;;;0.70;0.70;;;22.20;99.90;;;;;;5087134;28;20028;-57
2021/06/15 05:17:14;;;;;;;0.80;0.80;;;22.20;99.90;;;;;;5087502;28;20020;-57
2021/06/15 05:19:41;;;;;;;0.90;0.90;;;22.10;99.90;;;;;;5087457;28;20036;-57
2021/06/15 05:22:11;;;;;;;0.73;0.73;;;22.20;99.90;;;;;;5087535;28;20027;-57
2021/06/15 05:24:46;;;;;;;0.75;0.75;;;22.30;99.90;;;;;;5087315;28;20497;-57
2021/06/15 05:27:13;;;;;;;1.10;1.00;;;22.30;99.90;;;;;;5087485;28;20030;-57
2021/06/15 05:29:38;;;;;;;0.73;0.73;;;22.10;99.90;;;;;;5087436;28;20039;-57
2021/06/15 05:32:07;;;;;;;0.80;0.80;;;22.30;99.90;;;;;;5087491;28;20024;-57
2021/06/15 05:34:33;;;;;;;0.70;0.70;;;22.40;99.90;;;;;;5087742;28;20502;-57
2021/06/15 05:36:59;;;;;;;1.05;0.80;;;22.40;99.90;;;;;;5086777;28;20237;-57
2021/06/15 05:39:25;;;;;;;0.80;0.80;;;22.50;99.90;;;;;;5087257;28;20032;-57
2021/06/15 05:41:51;;;;;;;0.80;0.70;;;22.60;99.90;;;;;;5087097;28;20023;-57
2021/06/15 05:44:16;;;;;;;1.20;0.80;;;22.60;99.90;;;;;;5086452;28;20039;-57
2021/06/15 05:46:43;;;;;;;0.57;0.57;;;22.80;99.90;;;;;;5086863;28;20024;-57
2021/06/15 05:49:09;;;;;;;0.70;0.70;;;22.80;99.90;;;;;;5086811;28;20426;-57
2021/06/15 05:51:34;;;;;;;1.17;1.08;;;22.80;99.90;;;;;;5087198;28;20030;-57
2021/06/15 05:54:02;;;;;;;0.98;0.93;;;22.80;99.90;;;;;;5086978;28;20043;-57
2021/06/15 05:56:29;;;;;;;0.60;0.60;;;22.70;99.90;;;;;;5086990;28;20439;-57
2021/06/15 05:58:54;;;;;;;1.20;1.00;;;22.60;99.90;;;;;;5086664;28;20024;-57
2021/06/15 06:01:20;;;;;;;0.98;0.80;;;22.60;99.90;;;;;;5075840;28;20036;-57
2021/06/15 06:03:53;;;;;;;1.75;0.88;;;22.60;99.90;;;;;;5074712;28;20031;-57
2021/06/15 06:09:04;;;;;;;0.63;0.63;;;22.60;99.90;;;;;;5086179;28;20031;-57
2021/06/15 06:11:31;;;;;;;0.70;0.70;;;22.60;99.90;;;;;;5072365;28;20032;-56
2021/06/15 06:13:57;;;;;;;1.98;0.70;;;22.70;99.90;;;;;;5066272;28;20120;-56
2021/06/15 06:16:23;;;;;;;0.95;0.70;;;22.70;99.90;;;;;;5072807;28;20726;-56
2021/06/15 06:18:49;;;;;;;0.75;0.75;;;22.60;99.90;;;;;;5087590;28;20417;-56
2021/06/15 06:21:15;;;;;;;0.70;0.70;;;22.80;99.90;;;;;;5077873;28;20028;-57
2021/06/15 06:23:41;;;;;;;0.70;0.70;;;22.90;99.90;;;;;;5067538;28;20459;-56
2021/06/15 06:26:06;;;;;;;0.70;0.70;;;22.90;99.90;;;;;;5067496;28;20020;-56
2021/06/15 06:28:32;;;;;;;0.70;0.68;;;23.10;99.90;;;;;;5068160;28;20391;-55
2021/06/15 06:30:58;;;;;;;2.58;1.35;;;23.00;99.90;;;;;;5067770;28;20032;-56
2021/06/15 06:33:24;;;;;;;1.08;0.70;;;22.90;99.90;;;;;;5081022;28;20086;-56
2021/06/15 06:35:50;;;;;;;0.70;0.68;;;22.70;99.90;;;;;;5070476;28;20457;-56
2021/06/15 06:38:15;;;;;;;0.50;0.50;;;22.90;99.90;;;;;;5066012;28;20024;-56
2021/06/15 06:40:42;;;;;;;1.33;0.80;;;23.00;99.90;;;;;;5084436;28;20028;-56
2021/06/15 06:43:09;;;;;;;1.48;1.00;;;22.90;99.90;;;;;;5086068;28;20463;-56
2021/06/15 06:45:35;;;;;;;1.00;0.77;;;23.10;99.90;;;;;;5086671;28;20031;-56
2021/06/15 06:48:03;;;;;;;0.80;0.80;;;23.20;99.90;;;;;;5086252;28;20486;-56
2021/06/15 06:50:29;;;;;;;1.17;0.80;;;23.30;99.90;;;;;;5085687;28;20077;-55
2021/06/15 06:52:54;;;;;;;0.73;0.70;;;23.10;99.90;;;;;;5065831;28;20036;-55
2021/06/15 06:55:20;;;;;;;0.90;0.60;;;23.20;99.90;;;;;;5080899;28;20469;-55
2021/06/15 06:57:47;;;;;;;0.80;0.80;;;23.20;99.90;;;;;;5084768;28;20028;-55
2021/06/15 07:00:14;;;;;;;1.05;0.80;;;23.30;99.90;;;;;;5084743;28;20034;-55
2021/06/15 07:02:41;;;;;;;1.77;0.70;;;23.40;99.90;;;;;;5065071;28;20036;-55
2021/06/15 07:05:07;;;;;;;0.73;0.70;;;23.40;99.90;;;;;;5065353;28;20028;-55
2021/06/15 07:07:34;;;;;;;2.85;0.85;;;23.50;99.90;;;;;;5065836;28;20043;-56
2021/06/15 07:10:00;;;;;;;0.50;0.50;;;23.60;99.90;;;;;;5065166;28;20024;-56
2021/06/15 07:12:26;;;;;;;0.60;0.60;;;23.50;99.90;;;;;;5065115;28;20112;-56
2021/06/15 07:14:52;;;;;;;1.67;0.90;;;23.50;99.90;;;;;;5064800;28;20497;-56
2021/06/15 07:17:17;;;;;;;0.95;0.80;;;23.60;99.90;;;;;;5064846;28;20028;-56
2021/06/15 07:19:43;;;;;;;0.50;0.50;;;23.70;99.90;;;;;;5064760;28;20035;-55
2021/06/15 07:22:09;;;;;;;0.70;0.70;;;23.70;99.90;;;;;;5069700;28;20516;-57
2021/06/15 07:24:37;;;;;;;1.17;0.60;;;23.70;99.90;;;;;;5085715;28;20028;-57
2021/06/15 07:27:03;;;;;;;0.70;0.50;;;23.80;99.90;;;;;;5083400;28;20020;-57
2021/06/15 07:29:29;;;;;;;0.65;0.60;;;23.70;99.90;;;;;;5069104;28;20151;-57
2021/06/15 07:31:55;;;;;;;0.95;0.70;;;23.80;99.90;;;;;;5064473;28;20082;-57
2021/06/15 07:34:21;;;;;;;0.63;0.63;;;23.70;99.90;;;;;;5064723;28;20032;-57
2021/06/15 07:36:47;;;;;;;1.10;1.00;;;23.60;99.90;;;;;;5063384;28;20322;-57
2021/06/15 07:39:12;;;;;;;1.42;0.82;;;23.70;99.90;;;;;;5064821;28;20028;-57
2021/06/15 07:41:39;;;;;;;1.05;0.90;;;23.50;99.90;;;;;;5064809;28;20070;-57
2021/06/15 07:44:08;;;;;;;0.80;0.80;;;23.80;99.90;;;;;;5065245;28;20021;-57
2021/06/15 07:46:33;;;;;;;0.57;0.57;;;23.90;99.90;;;;;;5065139;28;20020;-57
2021/06/15 07:48:59;;;;;;;0.82;0.60;;;24.10;99.90;;;;;;5064400;28;20435;-57
2021/06/15 07:51:25;;;;;;;1.17;0.60;;;23.90;99.90;;;;;;5064704;28;20041;-57
2021/06/15 07:53:50;;;;;;;1.02;0.70;;;23.90;99.90;;;;;;5064268;28;20119;-57
2021/06/15 07:56:16;;;;;;;1.48;0.70;;;24.20;99.90;;;;;;5064650;28;20025;-57
2021/06/15 07:58:42;;;;;;;4.85;0.60;;;24.30;99.90;;;;;;5064094;28;20033;-57
2021/06/15 08:01:08;;;;;;;0.60;0.60;;;24.20;99.90;;;;;;5064431;28;20091;-57
2021/06/15 08:03:33;;;;;;;0.50;0.50;;;24.20;99.90;;;;;;5065022;28;20426;-57
2021/06/15 08:05:59;;;;;;;0.60;0.60;;;24.40;99.90;;;;;;5064322;28;20036;-56
2021/06/15 08:08:25;;;;;;;0.50;0.50;;;24.40;99.90;;;;;;5067156;28;20494;-56
2021/06/15 08:10:51;;;;;;;0.50;0.50;;;24.10;99.90;;;;;;5068506;28;20029;-56
2021/06/15 08:13:18;;;;;;;0.60;0.60;;;24.20;99.90;;;;;;5068327;28;20583;-57
2021/06/15 08:15:48;;;;;;;3.28;0.70;;;24.40;99.90;;;;;;5068143;28;20036;-57
2021/06/15 08:18:15;;;;;;;1.48;0.80;;;24.40;99.90;;;;;;5068565;28;20479;-56
2021/06/15 08:20:41;;;;;;;0.47;0.47;;;24.50;99.90;;;;;;5068257;28;20029;-56
2021/06/15 08:23:07;;;;;;;0.70;0.70;;;24.70;99.90;;;;;;5068567;28;20140;-57
2021/06/15 08:25:33;;;;;;;0.75;0.75;;;24.50;99.90;;;;;;5069194;28;20078;-56
2021/06/15 08:27:59;;;;;;;1.40;0.60;;;24.40;99.90;;;;;;5068237;28;20021;-57
2021/06/15 08:30:25;;;;;;;1.10;0.68;;;24.50;99.90;;;;;;5068052;28;20036;-57
2021/06/15 08:32:51;;;;;;;0.90;0.70;;;24.50;99.90;;;;;;5066571;28;20033;-56
2021/06/15 08:35:17;;;;;;;0.70;0.70;;;24.40;99.90;;;;;;5068070;28;20113;-56
2021/06/15 08:37:42;;;;;;;1.65;0.75;;;24.40;99.90;;;;;;5068050;28;20025;-56
2021/06/15 08:40:09;;;;;;;0.70;0.70;;;24.40;99.90;;;;;;5067964;28;20033;-57
2021/06/15 08:42:37;;;;;;;1.10;1.00;;;24.50;99.90;;;;;;5068590;28;20419;-57
2021/06/15 08:45:05;;;;;;;0.75;0.65;;;24.60;99.90;;;;;;5068180;28;20036;-56
2021/06/15 08:47:31;;;;;;;0.60;0.60;;;24.70;99.90;;;;;;5068270;28;20032;-56
2021/06/15 08:49:56;;;;;;;0.70;0.70;;;24.90;99.90;;;;;;5067689;28;20406;-56
2021/06/15 08:52:26;;;;;;;0.50;0.50;;;25.00;99.90;;;;;;5067553;28;20025;-57
2021/06/15 08:54:52;;;;;;;0.55;0.55;;;25.00;99.90;;;;;;5067446;28;20477;-57
2021/06/15 08:57:19;;;;;;;0.60;0.60;;;25.10;99.90;;;;;;5067729;28;20024;-57
2021/06/15 08:59:45;;;;;;;0.80;0.57;;;25.20;99.90;;;;;;5067245;28;20086;-57
2021/06/15 09:02:11;;;;;;;0.60;0.60;;;25.30;99.90;;;;;;5067881;28;20071;-57
2021/06/15 09:04:37;;;;;;;0.50;0.50;;;25.20;99.90;;;;;;5067671;28;20430;-57
2021/06/15 09:07:03;;;;;;;0.45;0.45;;;25.30;99.90;;;;;;5067917;28;20032;-57
2021/06/15 09:09:46;;;;;;;0.57;0.55;;;25.30;99.90;;;;;;5067594;28;20035;-57
2021/06/15 09:12:14;;;;;;;0.55;0.55;;;25.40;99.90;;;;;;5067623;28;20495;-57
2021/06/15 09:14:54;;;;;;;0.45;0.45;;;25.40;99.90;;;;;;5067109;28;20109;-57
2021/06/15 09:17:25;;;;;;;0.50;0.50;;;25.50;99.90;;;;;;5067411;28;20033;-56
2021/06/15 09:19:51;;;;;;;0.80;0.57;;;25.40;99.90;;;;;;5066660;28;20024;-57
2021/06/15 09:22:39;;;;;;;0.50;0.50;;;25.40;99.90;;;;;;5067421;28;20128;-57
2021/06/15 09:25:07;;;;;;;0.57;0.57;;;25.50;99.90;;;;;;5067741;28;20020;-57
2021/06/15 09:27:35;;;;;;;0.50;0.40;;;25.50;99.90;;;;;;5067938;28;20387;-57
2021/06/15 09:30:03;;;;;;;0.60;0.60;;;25.60;99.90;;;;;;5066945;28;20471;-57
2021/06/15 09:32:39;;;;;;;0.40;0.40;;;25.60;99.90;;;;;;5067251;28;20051;-57
2021/06/15 09:35:14;;;;;;;0.60;0.60;;;25.70;99.90;;;;;;5067506;28;20384;-57
2021/06/15 09:37:46;;;;;;;0.52;0.52;;;25.70;99.90;;;;;;5066879;28;20028;-57
2021/06/15 09:40:19;;;;;;;0.73;0.70;;;25.90;99.90;;;;;;5066799;28;20036;-57
2021/06/15 09:42:57;;;;;;;0.50;0.50;;;25.80;99.90;;;;;;5067020;28;20020;-57
2021/06/15 09:45:53;;;;;;;0.45;0.45;;;25.90;99.90;;;;;;5066640;28;20024;-57
2021/06/15 09:48:34;;;;;;;0.50;0.50;;;26.00;99.90;;;;;;5066554;28;20480;-57
2021/06/15 09:51:15;;;;;;;0.70;0.65;;;26.00;99.90;;;;;;5066489;28;20090;-57
2021/06/15 09:53:44;;;;;;;0.70;0.70;;;26.00;99.90;;;;;;5065974;28;20024;-57
2021/06/15 09:56:13;;;;;;;0.63;0.60;;;25.90;99.90;;;;;;5066544;28;20394;-57
2021/06/15 09:58:42;;;;;;;0.60;0.60;;;26.10;99.90;;;;;;5066676;28;20024;-57
2021/06/15 10:01:09;;;;;;;0.70;0.70;;;26.20;99.90;;;;;;5066408;28;20379;-57
2021/06/15 10:03:35;;;;;;;0.63;0.60;;;26.20;99.90;;;;;;5067105;28;20101;-57
2021/06/15 10:06:01;;;;;;;0.40;0.40;;;26.20;99.90;;;;;;5066532;28;20032;-57
2021/06/15 10:08:44;;;;;;;0.70;0.70;;;26.30;99.90;;;;;;5066430;28;20039;-57
2021/06/15 10:11:11;;;;;;;0.60;0.60;;;26.50;99.90;;;;;;5066126;28;20033;-57
2021/06/15 10:13:38;;;;;;;0.80;0.70;;;26.50;99.90;;;;;;5066135;28;20483;-57
2021/06/15 10:16:04;;;;;;;0.70;0.65;;;26.30;99.90;;;;;;5066760;28;20096;-57
2021/06/15 10:18:32;;;;;;;0.55;0.55;;;26.50;99.90;;;;;;5066427;28;20449;-56
2021/06/15 10:20:58;;;;;;;0.50;0.50;;;26.60;99.90;;;;;;5066053;28;20067;-56
2021/06/15 10:23:23;;;;;;;0.82;0.70;;;26.70;99.90;;;;;;5066190;28;20502;-57
2021/06/15 10:25:49;;;;;;;0.60;0.60;;;26.70;99.90;;;;;;5065964;28;20032;-57
2021/06/15 10:28:15;;;;;;;0.38;0.38;;;26.90;99.90;;;;;;5066038;28;20483;-57
2021/06/15 10:30:42;;;;;;;0.50;0.50;;;27.10;99.90;;;;;;5065115;28;20024;-57
2021/06/15 10:33:25;;;;;;;0.60;0.50;;;27.30;99.90;;;;;;5064328;28;20043;-57
2021/06/15 10:35:53;;;;;;;0.50;0.50;;;27.40;99.90;;;;;;5065752;28;20055;-57
2021/06/15 10:38:25;;;;;;;0.65;0.63;;;27.30;99.90;;;;;;5065830;28;20449;-57
2021/06/15 10:40:52;;;;;;;0.63;0.60;;;27.30;99.90;;;;;;5065611;28;20509;-57
2021/06/15 10:43:21;;;;;;;0.70;0.52;;;27.30;99.90;;;;;;5065406;28;20465;-57
2021/06/15 10:45:52;;;;;;;1.33;0.77;;;27.50;99.90;;;;;;5065373;28;20100;-57
2021/06/15 10:48:17;;;;;;;1.15;0.60;;;27.60;99.90;;;;;;5065507;28;20041;-57
2021/06/15 10:51:01;;;;;;;0.75;0.75;;;27.50;99.90;;;;;;5065554;28;20066;-56
2021/06/15 10:53:35;;;;;;;0.60;0.60;;;27.40;99.90;;;;;;5065120;28;20024;-57
2021/06/15 10:56:03;;;;;;;2.17;0.95;;;27.40;99.90;;;;;;5065819;28;20388;-57
2021/06/15 10:58:32;;;;;;;2.03;0.57;;;27.30;99.90;;;;;;5065326;28;20024;-57
2021/06/15 11:01:17;;;;;;;0.85;0.70;;;27.50;99.90;;;;;;5065312;28;20040;-57
2021/06/15 11:03:50;;;;;;;0.65;0.65;;;27.70;99.90;;;;;;5065622;28;20017;-56
2021/06/15 11:06:17;;;;;;;0.40;0.40;;;27.70;99.90;;;;;;5065294;28;20107;-56
2021/06/15 11:08:43;;;;;;;0.47;0.47;;;28.00;99.90;;;;;;5064899;28;20028;-56
2021/06/15 11:11:15;;;;;;;1.73;0.50;;;28.10;99.90;;;;;;5065235;28;20441;-57
2021/06/15 11:13:48;;;;;;;0.63;0.50;;;28.30;99.90;;;;;;5064568;28;20526;-56
2021/06/15 11:16:45;;;;;;;0.82;0.47;;;28.40;99.70;;;;;;5065102;28;20318;-57
2021/06/15 11:19:13;;;;;;;0.55;0.55;;;28.40;99.90;;;;;;5064903;28;20558;-57
2021/06/15 11:21:54;;;;;;;0.60;0.60;;;28.50;99.90;;;;;;5065076;28;20601;-57
2021/06/15 11:24:20;;;;;;;0.52;0.50;;;28.40;99.90;;;;;;5065081;28;20017;-56
2021/06/15 11:26:49;;;;;;;1.40;0.70;;;28.50;99.40;;;;;;5064869;28;20097;-57
2021/06/15 11:29:38;;;;;;;0.45;0.40;;;28.70;99.80;;;;;;5064871;28;20564;-57
2021/06/15 11:32:20;;;;;;;0.40;0.40;;;29.00;99.50;;;;;;5065395;28;20078;-57
2021/06/15 11:37:29;;;;;;;0.60;0.60;;;29.00;99.50;;;;;;5064793;28;20402;-57
2021/06/15 11:40:20;;;;;;;0.50;0.50;;;29.20;98.90;;;;;;5064574;28;20024;-56
2021/06/15 11:42:48;;;;;;;0.40;0.40;;;29.20;99.30;;;;;;5064113;28;20107;-57
2021/06/15 11:45:28;;;;;;;0.50;0.50;;;29.40;99.30;;;;;;5065001;28;20021;-57
2021/06/15 11:47:56;;;;;;;0.77;0.50;;;29.50;98.90;;;;;;5064723;28;20035;-56
2021/06/15 11:50:23;;;;;;;0.40;0.40;;;29.60;98.50;;;;;;5063569;28;20056;-57
2021/06/15 11:53:01;;;;;;;0.50;0.50;;;29.60;99.30;;;;;;5064044;28;20041;-56
2021/06/15 11:55:28;;;;;;;0.50;0.50;;;29.90;99.00;;;;;;5064516;28;20082;-57
2021/06/15 11:57:59;;;;;;;0.50;0.50;;;30.10;99.20;;;;;;5064190;28;20020;-56
2021/06/15 12:00:27;;;;;;;0.40;0.40;;;30.30;99.40;;;;;;5064469;28;20028;-56
2021/06/15 12:03:32;;;;;;;0.52;0.52;;;30.30;98.60;;;;;;5064384;28;20029;-57
2021/06/15 12:05:58;;;;;;;;;;;30.30;98.20;;;;;;5062037;28;20021;-56
2021/06/15 12:08:38;;;;;;;0.80;0.80;;;30.50;97.80;;;;;;5064058;28;19911;-56
2021/06/15 12:11:08;;;;;;;1.35;0.95;;;30.20;98.00;;;;;;5065054;28;20074;-56
2021/06/15 12:13:35;;;;;;;0.63;0.63;;;30.20;98.10;;;;;;5074015;28;20024;-56
2021/06/15 12:16:12;;;;;;;0.70;0.70;;;30.30;97.50;;;;;;5086028;28;20024;-56
2021/06/15 12:18:38;;;;;;;0.40;0.40;;;30.80;97.20;;;;;;5084248;28;20051;-55
2021/06/15 12:21:11;;;;;;;0.50;0.50;;;31.00;96.40;;;;;;5086330;28;20386;-56
2021/06/15 12:24:04;;;;;;;0.50;0.50;;;31.00;97.00;;;;;;5065847;28;20441;-56
2021/06/15 12:26:46;;;;;;;0.40;0.40;;;31.10;97.10;;;;;;5076072;28;20039;-56
2021/06/15 12:29:16;;;;;;;1.13;0.60;;;31.20;97.40;;;;;;5069036;28;20124;-57
2021/06/15 12:31:51;;;;;;;0.45;0.45;;;31.30;97.70;;;;;;5075555;28;20539;-57
2021/06/15 12:34:18;;;;;;;0.50;0.50;;;31.60;97.70;;;;;;5064997;28;20073;-57
2021/06/15 12:36:52;;;;;;;0.50;0.50;;;31.70;96.70;;;;;;5065415;28;20483;-57
2021/06/15 12:39:25;;;;;;;0.57;0.52;;;31.80;96.50;;;;;;5072369;28;20036;-57
2021/06/15 12:41:59;;;;;;;0.57;0.50;;;31.80;96.80;;;;;;5083519;28;20035;-56
2021/06/15 12:44:42;;;;;;;0.45;0.45;;;32.10;97.10;;;;;;5073700;28;20067;-56
2021/06/15 12:47:13;;;;;;;0.47;0.47;;;32.10;96.70;;;;;;5069803;28;20669;-56
2021/06/15 12:49:54;;;;;;;0.50;0.50;;;32.10;96.10;;;;;;5075110;28;20097;-57
2021/06/15 12:52:21;;;;;;;0.60;0.60;;;32.00;95.00;;;;;;5065458;28;20033;-56
2021/06/15 12:54:48;;;;;;;0.60;0.60;;;32.10;96.10;;;;;;5075629;28;20036;-56
2021/06/15 12:57:17;;;;;;;0.40;0.40;;;32.50;96.50;;;;;;5075155;28;20040;-56
2021/06/15 12:59:55;;;;;;;0.52;0.52;;;32.60;96.50;;;;;;5080796;28;20103;-56
2021/06/15 13:02:24;;;;;;;0.63;0.45;;;32.80;96.80;;;;;;5072220;28;20487;-56
2021/06/15 13:04:57;;;;;;;0.52;0.50;;;32.90;96.80;;;;;;5079856;28;20025;-56
2021/06/15 13:07:25;;;;;;;0.90;0.60;;;32.90;97.00;;;;;;5073014;28;20542;-56